sensor_id;sensor_type;location;lat;lon;timestamp;temperature;humidity
9845;DHT22;4961;50.782;6.080;2022-07-21T00:00:53;20.20;99.90
9845;DHT22;4961;50.782;6.080;2022-07-21T00:03:21;20.10;99.90
9845;DHT22;4961;50.782;6.080;2022-07-21T00:05:49;20.10;99.90
9845;DHT22;4961;50.782;6.080;2022-07-21T00:08:19;20.10;99.90
9845;DHT22;4961;50.782;6.080;2022-07-21T00:10:48;20.10;99.90
9845;DHT22;4961;50.782;6.080;2022-07-21T00:13:17;20.10;99.90
9845;DHT22;4961;50.782;6.080;2022-07-21T00:15:45;20.10;99.90
9845;DHT22;4961;50.782;6.080;2022-07-21T00:18:14;20.10;99.90
9845;DHT22;4961;50.782;6.080;2022-07-21T00:20:43;20.10;99.90
9845;DHT22;4961;50.782;6.080;2022-07-21T00:23:11;20.00;99.90
9845;DHT22;4961;50.782;6.080;2022-07-21T00:25:42;20.00;99.90
9845;DHT22;4961;50.782;6.080;2022-07-21T00:28:10;20.00;99.90
9845;DHT22;4961;50.782;6.080;2022-07-21T00:30:39;20.00;99.90
9845;DHT22;4961;50.782;6.080;2022-07-21T00:33:07;20.00;99.90
9845;DHT22;4961;50.782;6.080;2022-07-21T00:35:36;20.00;99.90
9845;DHT22;4961;50.782;6.080;2022-07-21T00:38:04;20.00;99.90
9845;DHT22;4961;50.782;6.080;2022-07-21T00:40:32;19.90;99.90
9845;DHT22;4961;50.782;6.080;2022-07-21T00:43:02;19.90;99.90
9845;DHT22;4961;50.782;6.080;2022-07-21T00:45:31;19.90;99.90
9845;DHT22;4961;50.782;6.080;2022-07-21T00:48:00;19.80;99.90
9845;DHT22;4961;50.782;6.080;2022-07-21T00:50:29;19.70;99.90
9845;DHT22;4961;50.782;6.080;2022-07-21T00:53:00;19.70;99.90
9845;DHT22;4961;50.782;6.080;2022-07-21T00:55:29;19.70;99.90
9845;DHT22;4961;50.782;6.080;2022-07-21T00:57:58;19.70;99.90
9845;DHT22;4961;50.782;6.080;2022-07-21T01:00:29;19.80;99.90
9845;DHT22;4961;50.782;6.080;2022-07-21T01:03:04;19.70;99.90
9845;DHT22;4961;50.782;6.080;2022-07-21T01:05:33;19.70;99.90
9845;DHT22;4961;50.782;6.080;2022-07-21T01:08:02;19.70;99.90
9845;DHT22;4961;50.782;6.080;2022-07-21T01:10:31;19.70;99.90
9845;DHT22;4961;50.782;6.080;2022-07-21T01:13:00;19.70;99.90
9845;DHT22;4961;50.782;6.080;2022-07-21T01:15:30;19.60;99.90
9845;DHT22;4961;50.782;6.080;2022-07-21T01:20:50;19.70;99.90
9845;DHT22;4961;50.782;6.080;2022-07-21T01:23:21;19.70;99.90
9845;DHT22;4961;50.782;6.080;2022-07-21T01:25:50;19.80;99.90
9845;DHT22;4961;50.782;6.080;2022-07-21T01:28:18;19.70;99.90
9845;DHT22;4961;50.782;6.080;2022-07-21T01:30:46;19.80;99.90
9845;DHT22;4961;50.782;6.080;2022-07-21T01:33:15;19.80;99.90
9845;DHT22;4961;50.782;6.080;2022-07-21T01:35:43;19.80;99.90
9845;DHT22;4961;50.782;6.080;2022-07-21T01:38:12;19.80;99.90
9845;DHT22;4961;50.782;6.080;2022-07-21T01:40:59;19.70;99.90
9845;DHT22;4961;50.782;6.080;2022-07-21T01:43:46;19.70;99.90
9845;DHT22;4961;50.782;6.080;2022-07-21T01:46:14;19.70;99.90
9845;DHT22;4961;50.782;6.080;2022-07-21T01:48:42;19.70;99.90
9845;DHT22;4961;50.782;6.080;2022-07-21T01:51:11;19.70;99.90
9845;DHT22;4961;50.782;6.080;2022-07-21T01:53:39;19.70;99.90
9845;DHT22;4961;50.782;6.080;2022-07-21T01:56:09;19.80;99.90
9845;DHT22;4961;50.782;6.080;2022-07-21T01:58:37;19.80;99.90
9845;DHT22;4961;50.782;6.080;2022-07-21T02:01:05;19.80;99.90
9845;DHT22;4961;50.782;6.080;2022-07-21T02:03:34;19.80;99.90
9845;DHT22;4961;50.782;6.080;2022-07-21T02:06:04;19.80;99.90
9845;DHT22;4961;50.782;6.080;2022-07-21T02:08:32;19.90;99.90
9845;DHT22;4961;50.782;6.080;2022-07-21T02:11:01;19.80;99.90
9845;DHT22;4961;50.782;6.080;2022-07-21T02:13:30;19.80;99.90
9845;DHT22;4961;50.782;6.080;2022-07-21T02:15:59;19.90;99.90
9845;DHT22;4961;50.782;6.080;2022-07-21T02:18:27;19.90;99.90
9845;DHT22;4961;50.782;6.080;2022-07-21T02:20:56;19.80;99.90
9845;DHT22;4961;50.782;6.080;2022-07-21T02:23:25;19.80;99.90
9845;DHT22;4961;50.782;6.080;2022-07-21T02:25:54;19.80;99.90
9845;DHT22;4961;50.782;6.080;2022-07-21T02:28:24;19.80;99.90
9845;DHT22;4961;50.782;6.080;2022-07-21T02:30:55;19.80;99.90
9845;DHT22;4961;50.782;6.080;2022-07-21T02:33:23;19.80;99.90
9845;DHT22;4961;50.782;6.080;2022-07-21T02:35:52;19.80;99.90
9845;DHT22;4961;50.782;6.080;2022-07-21T02:38:20;19.90;99.90
9845;DHT22;4961;50.782;6.080;2022-07-21T02:40:48;19.80;99.90
9845;DHT22;4961;50.782;6.080;2022-07-21T02:43:23;19.80;99.90
9845;DHT22;4961;50.782;6.080;2022-07-21T02:45:51;19.80;99.90
9845;DHT22;4961;50.782;6.080;2022-07-21T02:48:21;19.70;99.90
9845;DHT22;4961;50.782;6.080;2022-07-21T02:50:49;19.80;99.90
9845;DHT22;4961;50.782;6.080;2022-07-21T02:53:19;19.80;99.90
9845;DHT22;4961;50.782;6.080;2022-07-21T02:55:50;19.80;99.90
9845;DHT22;4961;50.782;6.080;2022-07-21T02:58:21;19.70;99.90
9845;DHT22;4961;50.782;6.080;2022-07-21T03:00:52;19.60;99.90
9845;DHT22;4961;50.782;6.080;2022-07-21T03:03:23;19.70;99.90
9845;DHT22;4961;50.782;6.080;2022-07-21T03:05:52;19.70;99.90
9845;DHT22;4961;50.782;6.080;2022-07-21T03:08:22;19.80;99.90
9845;DHT22;4961;50.782;6.080;2022-07-21T03:10:50;19.80;99.90
9845;DHT22;4961;50.782;6.080;2022-07-21T03:13:19;19.80;99.90
9845;DHT22;4961;50.782;6.080;2022-07-21T03:15:48;19.80;99.90
9845;DHT22;4961;50.782;6.080;2022-07-21T03:18:16;19.80;99.90
9845;DHT22;4961;50.782;6.080;2022-07-21T03:20:46;19.80;99.90
9845;DHT22;4961;50.782;6.080;2022-07-21T03:23:14;19.80;99.90
9845;DHT22;4961;50.782;6.080;2022-07-21T03:25:42;19.80;99.90
9845;DHT22;4961;50.782;6.080;2022-07-21T03:28:11;19.80;99.90
9845;DHT22;4961;50.782;6.080;2022-07-21T03:30:39;19.70;99.90
9845;DHT22;4961;50.782;6.080;2022-07-21T03:33:07;19.80;99.90
9845;DHT22;4961;50.782;6.080;2022-07-21T03:35:35;19.70;99.90
9845;DHT22;4961;50.782;6.080;2022-07-21T03:38:05;19.80;99.90
9845;DHT22;4961;50.782;6.080;2022-07-21T03:40:35;19.80;99.90
9845;DHT22;4961;50.782;6.080;2022-07-21T03:43:05;19.80;99.90
9845;DHT22;4961;50.782;6.080;2022-07-21T03:45:35;19.80;99.90
9845;DHT22;4961;50.782;6.080;2022-07-21T03:48:05;19.80;99.90
9845;DHT22;4961;50.782;6.080;2022-07-21T03:50:35;19.80;99.90
9845;DHT22;4961;50.782;6.080;2022-07-21T03:53:05;19.80;99.90
9845;DHT22;4961;50.782;6.080;2022-07-21T03:55:33;19.80;99.90
9845;DHT22;4961;50.782;6.080;2022-07-21T03:58:04;19.80;99.90
9845;DHT22;4961;50.782;6.080;2022-07-21T04:00:34;19.80;99.90
9845;DHT22;4961;50.782;6.080;2022-07-21T04:03:04;19.90;99.90
9845;DHT22;4961;50.782;6.080;2022-07-21T04:05:34;19.80;99.90
9845;DHT22;4961;50.782;6.080;2022-07-21T04:08:04;19.80;99.90
9845;DHT22;4961;50.782;6.080;2022-07-21T04:10:35;19.80;99.90
9845;DHT22;4961;50.782;6.080;2022-07-21T04:13:05;19.80;99.90
9845;DHT22;4961;50.782;6.080;2022-07-21T04:15:34;19.80;99.90
9845;DHT22;4961;50.782;6.080;2022-07-21T04:18:04;19.90;99.90
9845;DHT22;4961;50.782;6.080;2022-07-21T04:20:33;19.90;99.90
9845;DHT22;4961;50.782;6.080;2022-07-21T04:23:01;19.80;99.90
9845;DHT22;4961;50.782;6.080;2022-07-21T04:25:31;19.80;99.90
9845;DHT22;4961;50.782;6.080;2022-07-21T04:27:59;19.70;99.90
9845;DHT22;4961;50.782;6.080;2022-07-21T04:30:28;19.70;99.90
9845;DHT22;4961;50.782;6.080;2022-07-21T04:32:56;19.70;99.90
9845;DHT22;4961;50.782;6.080;2022-07-21T04:35:24;19.80;99.90
9845;DHT22;4961;50.782;6.080;2022-07-21T04:37:53;19.80;99.90
9845;DHT22;4961;50.782;6.080;2022-07-21T04:40:21;19.80;99.90
9845;DHT22;4961;50.782;6.080;2022-07-21T04:42:51;19.80;99.90
9845;DHT22;4961;50.782;6.080;2022-07-21T04:45:19;19.80;99.90
9845;DHT22;4961;50.782;6.080;2022-07-21T04:47:49;19.80;99.90
9845;DHT22;4961;50.782;6.080;2022-07-21T04:50:20;19.80;99.90
9845;DHT22;4961;50.782;6.080;2022-07-21T04:52:49;19.80;99.90
9845;DHT22;4961;50.782;6.080;2022-07-21T04:55:18;19.80;99.90
9845;DHT22;4961;50.782;6.080;2022-07-21T04:57:50;19.80;99.90
9845;DHT22;4961;50.782;6.080;2022-07-21T05:00:22;19.80;99.90
9845;DHT22;4961;50.782;6.080;2022-07-21T05:02:52;19.80;99.90
9845;DHT22;4961;50.782;6.080;2022-07-21T05:05:21;19.80;99.90
9845;DHT22;4961;50.782;6.080;2022-07-21T05:07:50;19.90;99.90
9845;DHT22;4961;50.782;6.080;2022-07-21T05:10:18;19.80;99.90
9845;DHT22;4961;50.782;6.080;2022-07-21T05:12:49;19.80;99.90
9845;DHT22;4961;50.782;6.080;2022-07-21T05:15:17;19.80;99.90
9845;DHT22;4961;50.782;6.080;2022-07-21T05:17:46;19.80;99.90
9845;DHT22;4961;50.782;6.080;2022-07-21T05:20:14;19.80;99.90
9845;DHT22;4961;50.782;6.080;2022-07-21T05:22:42;19.90;99.90
9845;DHT22;4961;50.782;6.080;2022-07-21T05:25:11;20.00;99.90
9845;DHT22;4961;50.782;6.080;2022-07-21T05:27:39;20.00;99.90
9845;DHT22;4961;50.782;6.080;2022-07-21T05:30:10;20.00;99.90
9845;DHT22;4961;50.782;6.080;2022-07-21T05:32:38;20.00;99.90
9845;DHT22;4961;50.782;6.080;2022-07-21T05:35:14;20.10;99.90
9845;DHT22;4961;50.782;6.080;2022-07-21T05:37:42;20.10;99.90
9845;DHT22;4961;50.782;6.080;2022-07-21T05:40:12;20.20;99.90
9845;DHT22;4961;50.782;6.080;2022-07-21T05:42:40;20.20;99.90
9845;DHT22;4961;50.782;6.080;2022-07-21T05:45:11;20.30;99.90
9845;DHT22;4961;50.782;6.080;2022-07-21T05:47:41;20.30;99.90
9845;DHT22;4961;50.782;6.080;2022-07-21T05:50:11;20.30;99.90
9845;DHT22;4961;50.782;6.080;2022-07-21T05:52:40;20.20;99.90
9845;DHT22;4961;50.782;6.080;2022-07-21T05:55:10;20.20;99.90
9845;DHT22;4961;50.782;6.080;2022-07-21T05:57:38;20.20;99.90
9845;DHT22;4961;50.782;6.080;2022-07-21T06:00:14;20.30;99.90
9845;DHT22;4961;50.782;6.080;2022-07-21T06:02:43;20.30;99.90
9845;DHT22;4961;50.782;6.080;2022-07-21T06:05:12;20.30;99.90
9845;DHT22;4961;50.782;6.080;2022-07-21T06:07:40;20.30;99.90
9845;DHT22;4961;50.782;6.080;2022-07-21T06:10:09;20.40;99.90
9845;DHT22;4961;50.782;6.080;2022-07-21T06:12:41;20.30;99.90
9845;DHT22;4961;50.782;6.080;2022-07-21T06:15:10;20.20;99.90
9845;DHT22;4961;50.782;6.080;2022-07-21T06:17:41;20.20;99.90
9845;DHT22;4961;50.782;6.080;2022-07-21T06:20:10;20.10;99.90
9845;DHT22;4961;50.782;6.080;2022-07-21T06:22:39;20.20;99.90
9845;DHT22;4961;50.782;6.080;2022-07-21T06:25:10;20.20;99.90
9845;DHT22;4961;50.782;6.080;2022-07-21T06:27:44;20.10;99.90
9845;DHT22;4961;50.782;6.080;2022-07-21T06:30:16;20.10;99.90
9845;DHT22;4961;50.782;6.080;2022-07-21T06:32:46;20.20;99.90
9845;DHT22;4961;50.782;6.080;2022-07-21T06:35:14;20.10;99.90
9845;DHT22;4961;50.782;6.080;2022-07-21T06:37:44;20.20;99.90
9845;DHT22;4961;50.782;6.080;2022-07-21T06:40:13;20.20;99.90
9845;DHT22;4961;50.782;6.080;2022-07-21T06:42:42;20.30;99.90
9845;DHT22;4961;50.782;6.080;2022-07-21T06:45:30;20.40;99.90
9845;DHT22;4961;50.782;6.080;2022-07-21T06:48:05;20.30;99.90
9845;DHT22;4961;50.782;6.080;2022-07-21T06:50:34;20.40;99.90
9845;DHT22;4961;50.782;6.080;2022-07-21T06:53:03;20.40;99.90
9845;DHT22;4961;50.782;6.080;2022-07-21T06:55:32;20.40;99.90
9845;DHT22;4961;50.782;6.080;2022-07-21T06:58:09;20.40;99.90
9845;DHT22;4961;50.782;6.080;2022-07-21T07:00:37;20.50;99.90
9845;DHT22;4961;50.782;6.080;2022-07-21T07:03:07;20.50;99.90
9845;DHT22;4961;50.782;6.080;2022-07-21T07:05:36;20.50;99.90
9845;DHT22;4961;50.782;6.080;2022-07-21T07:08:05;20.60;99.90
9845;DHT22;4961;50.782;6.080;2022-07-21T07:10:38;20.70;99.90
9845;DHT22;4961;50.782;6.080;2022-07-21T07:13:07;20.70;99.90
9845;DHT22;4961;50.782;6.080;2022-07-21T07:15:56;20.80;99.90
9845;DHT22;4961;50.782;6.080;2022-07-21T07:18:26;20.80;99.90
9845;DHT22;4961;50.782;6.080;2022-07-21T07:20:54;20.80;99.90
9845;DHT22;4961;50.782;6.080;2022-07-21T07:23:22;20.80;99.90
9845;DHT22;4961;50.782;6.080;2022-07-21T07:25:50;20.80;99.90
9845;DHT22;4961;50.782;6.080;2022-07-21T07:28:18;20.70;99.90
9845;DHT22;4961;50.782;6.080;2022-07-21T07:30:47;20.70;99.90
9845;DHT22;4961;50.782;6.080;2022-07-21T07:33:16;20.80;99.90
9845;DHT22;4961;50.782;6.080;2022-07-21T07:35:45;20.80;99.90
9845;DHT22;4961;50.782;6.080;2022-07-21T07:38:14;20.80;99.90
9845;DHT22;4961;50.782;6.080;2022-07-21T07:40:42;20.80;99.90
9845;DHT22;4961;50.782;6.080;2022-07-21T07:43:11;20.80;99.90
9845;DHT22;4961;50.782;6.080;2022-07-21T07:45:39;20.80;99.90
9845;DHT22;4961;50.782;6.080;2022-07-21T07:48:07;20.90;99.90
9845;DHT22;4961;50.782;6.080;2022-07-21T07:50:36;20.90;99.90
9845;DHT22;4961;50.782;6.080;2022-07-21T07:53:06;21.00;99.90
9845;DHT22;4961;50.782;6.080;2022-07-21T07:55:37;21.00;99.90
9845;DHT22;4961;50.782;6.080;2022-07-21T07:58:06;20.90;99.90
9845;DHT22;4961;50.782;6.080;2022-07-21T08:00:34;20.80;99.90
9845;DHT22;4961;50.782;6.080;2022-07-21T08:03:22;20.90;99.90
9845;DHT22;4961;50.782;6.080;2022-07-21T08:05:52;20.80;99.90
9845;DHT22;4961;50.782;6.080;2022-07-21T08:08:22;20.80;99.90
9845;DHT22;4961;50.782;6.080;2022-07-21T08:10:50;20.80;99.90
9845;DHT22;4961;50.782;6.080;2022-07-21T08:13:18;20.90;99.90
9845;DHT22;4961;50.782;6.080;2022-07-21T08:15:48;20.90;99.90
9845;DHT22;4961;50.782;6.080;2022-07-21T08:18:17;20.90;99.90
9845;DHT22;4961;50.782;6.080;2022-07-21T08:20:47;21.00;99.90
9845;DHT22;4961;50.782;6.080;2022-07-21T08:23:16;21.10;99.90
9845;DHT22;4961;50.782;6.080;2022-07-21T08:25:46;21.20;99.90
9845;DHT22;4961;50.782;6.080;2022-07-21T08:28:15;21.30;99.90
9845;DHT22;4961;50.782;6.080;2022-07-21T08:30:43;21.40;99.90
9845;DHT22;4961;50.782;6.080;2022-07-21T08:33:11;21.40;99.90
9845;DHT22;4961;50.782;6.080;2022-07-21T08:35:40;21.40;99.90
9845;DHT22;4961;50.782;6.080;2022-07-21T08:38:09;21.60;99.90
9845;DHT22;4961;50.782;6.080;2022-07-21T08:40:41;21.70;99.90
9845;DHT22;4961;50.782;6.080;2022-07-21T08:43:11;21.60;99.90
9845;DHT22;4961;50.782;6.080;2022-07-21T08:45:42;21.70;99.90
9845;DHT22;4961;50.782;6.080;2022-07-21T08:48:11;21.70;99.90
9845;DHT22;4961;50.782;6.080;2022-07-21T08:50:44;21.70;99.90
9845;DHT22;4961;50.782;6.080;2022-07-21T08:53:13;21.60;99.90
9845;DHT22;4961;50.782;6.080;2022-07-21T08:55:41;21.70;99.90
9845;DHT22;4961;50.782;6.080;2022-07-21T08:58:12;21.60;99.90
9845;DHT22;4961;50.782;6.080;2022-07-21T09:00:42;21.50;99.90
9845;DHT22;4961;50.782;6.080;2022-07-21T09:03:13;21.50;99.90
9845;DHT22;4961;50.782;6.080;2022-07-21T09:05:42;21.50;99.90
9845;DHT22;4961;50.782;6.080;2022-07-21T09:08:11;21.50;99.90
9845;DHT22;4961;50.782;6.080;2022-07-21T09:10:39;21.50;99.90
9845;DHT22;4961;50.782;6.080;2022-07-21T09:13:11;21.40;99.90
9845;DHT22;4961;50.782;6.080;2022-07-21T09:15:39;21.40;99.90
9845;DHT22;4961;50.782;6.080;2022-07-21T09:18:09;21.40;99.90
9845;DHT22;4961;50.782;6.080;2022-07-21T09:20:45;21.30;99.90
9845;DHT22;4961;50.782;6.080;2022-07-21T09:23:15;21.10;99.90
9845;DHT22;4961;50.782;6.080;2022-07-21T09:25:45;21.10;99.90
9845;DHT22;4961;50.782;6.080;2022-07-21T09:28:16;21.00;99.90
9845;DHT22;4961;50.782;6.080;2022-07-21T09:30:50;21.00;99.90
9845;DHT22;4961;50.782;6.080;2022-07-21T09:33:22;21.00;99.90
9845;DHT22;4961;50.782;6.080;2022-07-21T09:35:59;20.90;99.90
9845;DHT22;4961;50.782;6.080;2022-07-21T09:38:29;20.80;99.90
9845;DHT22;4961;50.782;6.080;2022-07-21T09:41:11;20.80;99.90
9845;DHT22;4961;50.782;6.080;2022-07-21T09:43:43;20.80;99.90
9845;DHT22;4961;50.782;6.080;2022-07-21T09:46:15;20.70;99.90
9845;DHT22;4961;50.782;6.080;2022-07-21T09:48:45;20.70;99.90
9845;DHT22;4961;50.782;6.080;2022-07-21T09:51:36;20.80;99.90
9845;DHT22;4961;50.782;6.080;2022-07-21T09:54:09;20.70;99.90
9845;DHT22;4961;50.782;6.080;2022-07-21T09:56:39;20.60;99.90
9845;DHT22;4961;50.782;6.080;2022-07-21T09:59:11;20.50;99.90
9845;DHT22;4961;50.782;6.080;2022-07-21T10:01:39;20.40;99.90
9845;DHT22;4961;50.782;6.080;2022-07-21T10:04:08;20.40;99.90
9845;DHT22;4961;50.782;6.080;2022-07-21T10:06:38;20.40;99.90
9845;DHT22;4961;50.782;6.080;2022-07-21T10:09:08;20.40;99.90
9845;DHT22;4961;50.782;6.080;2022-07-21T10:11:39;20.40;99.90
9845;DHT22;4961;50.782;6.080;2022-07-21T10:14:10;20.30;99.90
9845;DHT22;4961;50.782;6.080;2022-07-21T10:16:39;20.30;99.90
9845;DHT22;4961;50.782;6.080;2022-07-21T10:19:21;20.30;99.90
9845;DHT22;4961;50.782;6.080;2022-07-21T10:21:58;20.20;99.90
9845;DHT22;4961;50.782;6.080;2022-07-21T10:24:29;20.10;99.90
9845;DHT22;4961;50.782;6.080;2022-07-21T10:27:03;20.00;99.90
9845;DHT22;4961;50.782;6.080;2022-07-21T10:29:58;20.00;99.90
9845;DHT22;4961;50.782;6.080;2022-07-21T10:32:31;19.90;99.90
9845;DHT22;4961;50.782;6.080;2022-07-21T10:35:03;19.80;99.90
9845;DHT22;4961;50.782;6.080;2022-07-21T10:37:50;19.80;99.90
9845;DHT22;4961;50.782;6.080;2022-07-21T10:40:36;19.70;99.90
9845;DHT22;4961;50.782;6.080;2022-07-21T10:43:39;19.60;99.90
9845;DHT22;4961;50.782;6.080;2022-07-21T10:46:36;19.60;99.90
9845;DHT22;4961;50.782;6.080;2022-07-21T10:49:06;19.40;99.90
9845;DHT22;4961;50.782;6.080;2022-07-21T10:51:37;19.40;99.90
9845;DHT22;4961;50.782;6.080;2022-07-21T10:54:22;19.30;99.90
9845;DHT22;4961;50.782;6.080;2022-07-21T10:57:28;19.30;99.90
9845;DHT22;4961;50.782;6.080;2022-07-21T11:00:16;19.30;99.90
9845;DHT22;4961;50.782;6.080;2022-07-21T11:02:49;19.30;99.90
9845;DHT22;4961;50.782;6.080;2022-07-21T11:05:18;19.30;99.90
9845;DHT22;4961;50.782;6.080;2022-07-21T11:10:52;19.30;99.90
9845;DHT22;4961;50.782;6.080;2022-07-21T11:13:22;19.30;99.90
9845;DHT22;4961;50.782;6.080;2022-07-21T11:15:58;19.40;99.90
9845;DHT22;4961;50.782;6.080;2022-07-21T11:18:29;19.40;99.90
9845;DHT22;4961;50.782;6.080;2022-07-21T11:21:17;19.40;99.90
9845;DHT22;4961;50.782;6.080;2022-07-21T11:23:47;19.30;99.90
9845;DHT22;4961;50.782;6.080;2022-07-21T11:26:17;19.30;99.90
9845;DHT22;4961;50.782;6.080;2022-07-21T11:28:46;19.30;99.90
9845;DHT22;4961;50.782;6.080;2022-07-21T11:31:16;19.30;99.90
9845;DHT22;4961;50.782;6.080;2022-07-21T11:33:47;19.40;99.90
9845;DHT22;4961;50.782;6.080;2022-07-21T11:36:24;19.40;99.90
9845;DHT22;4961;50.782;6.080;2022-07-21T11:39:05;19.40;99.90
9845;DHT22;4961;50.782;6.080;2022-07-21T11:41:35;19.30;99.90
9845;DHT22;4961;50.782;6.080;2022-07-21T11:44:05;19.30;99.90
9845;DHT22;4961;50.782;6.080;2022-07-21T11:46:45;19.40;99.90
9845;DHT22;4961;50.782;6.080;2022-07-21T11:49:15;19.40;99.90
9845;DHT22;4961;50.782;6.080;2022-07-21T11:51:48;19.40;99.90
9845;DHT22;4961;50.782;6.080;2022-07-21T11:54:26;19.40;99.90
9845;DHT22;4961;50.782;6.080;2022-07-21T11:56:56;19.50;99.90
9845;DHT22;4961;50.782;6.080;2022-07-21T11:59:25;19.50;99.90
9845;DHT22;4961;50.782;6.080;2022-07-21T12:02:00;19.60;99.90
9845;DHT22;4961;50.782;6.080;2022-07-21T12:04:41;19.60;99.90
9845;DHT22;4961;50.782;6.080;2022-07-21T12:07:16;19.60;99.90
9845;DHT22;4961;50.782;6.080;2022-07-21T12:09:46;19.60;99.90
9845;DHT22;4961;50.782;6.080;2022-07-21T12:12:32;19.60;99.90
9845;DHT22;4961;50.782;6.080;2022-07-21T12:15:12;19.70;99.90
9845;DHT22;4961;50.782;6.080;2022-07-21T12:17:43;19.60;99.90
9845;DHT22;4961;50.782;6.080;2022-07-21T12:20:14;19.60;99.90
9845;DHT22;4961;50.782;6.080;2022-07-21T12:22:45;19.60;99.90
9845;DHT22;4961;50.782;6.080;2022-07-21T12:25:16;19.60;99.90
9845;DHT22;4961;50.782;6.080;2022-07-21T12:27:46;19.60;99.90
9845;DHT22;4961;50.782;6.080;2022-07-21T12:30:33;19.60;99.90
9845;DHT22;4961;50.782;6.080;2022-07-21T12:33:07;19.60;99.90
9845;DHT22;4961;50.782;6.080;2022-07-21T12:35:38;19.70;99.90
9845;DHT22;4961;50.782;6.080;2022-07-21T12:38:10;19.70;99.90
9845;DHT22;4961;50.782;6.080;2022-07-21T12:40:42;19.70;99.90
9845;DHT22;4961;50.782;6.080;2022-07-21T12:43:31;19.80;99.90
9845;DHT22;4961;50.782;6.080;2022-07-21T12:46:02;19.70;99.90
9845;DHT22;4961;50.782;6.080;2022-07-21T12:48:32;19.70;99.90
9845;DHT22;4961;50.782;6.080;2022-07-21T12:51:11;19.70;99.90
9845;DHT22;4961;50.782;6.080;2022-07-21T12:53:45;19.70;99.90
9845;DHT22;4961;50.782;6.080;2022-07-21T12:56:16;19.50;99.90
9845;DHT22;4961;50.782;6.080;2022-07-21T12:58:46;19.40;99.90
9845;DHT22;4961;50.782;6.080;2022-07-21T13:01:17;19.40;99.90
9845;DHT22;4961;50.782;6.080;2022-07-21T13:03:46;19.30;99.90
9845;DHT22;4961;50.782;6.080;2022-07-21T13:06:16;19.40;99.90
9845;DHT22;4961;50.782;6.080;2022-07-21T13:08:45;19.40;99.90
9845;DHT22;4961;50.782;6.080;2022-07-21T13:11:17;19.40;99.90
9845;DHT22;4961;50.782;6.080;2022-07-21T13:13:48;19.40;99.90
9845;DHT22;4961;50.782;6.080;2022-07-21T13:16:17;19.40;99.90
9845;DHT22;4961;50.782;6.080;2022-07-21T13:18:45;19.40;99.90
9845;DHT22;4961;50.782;6.080;2022-07-21T13:21:15;19.40;99.90
9845;DHT22;4961;50.782;6.080;2022-07-21T13:23:44;19.40;99.90
9845;DHT22;4961;50.782;6.080;2022-07-21T13:26:12;19.40;99.90
9845;DHT22;4961;50.782;6.080;2022-07-21T13:28:41;19.40;99.90
9845;DHT22;4961;50.782;6.080;2022-07-21T13:31:09;19.30;99.90
9845;DHT22;4961;50.782;6.080;2022-07-21T13:33:38;19.30;99.90
9845;DHT22;4961;50.782;6.080;2022-07-21T13:36:08;19.30;99.90
9845;DHT22;4961;50.782;6.080;2022-07-21T13:38:39;19.20;99.90
9845;DHT22;4961;50.782;6.080;2022-07-21T13:41:07;19.10;99.90
9845;DHT22;4961;50.782;6.080;2022-07-21T13:43:56;19.10;99.90
9845;DHT22;4961;50.782;6.080;2022-07-21T13:46:24;19.00;99.90
9845;DHT22;4961;50.782;6.080;2022-07-21T13:48:53;19.00;99.90
9845;DHT22;4961;50.782;6.080;2022-07-21T13:51:21;19.00;99.90
9845;DHT22;4961;50.782;6.080;2022-07-21T13:53:52;19.00;99.90
9845;DHT22;4961;50.782;6.080;2022-07-21T13:56:21;19.00;99.90
9845;DHT22;4961;50.782;6.080;2022-07-21T13:58:49;19.00;99.90
9845;DHT22;4961;50.782;6.080;2022-07-21T14:01:18;19.10;99.90
9845;DHT22;4961;50.782;6.080;2022-07-21T14:03:47;19.00;99.90
9845;DHT22;4961;50.782;6.080;2022-07-21T14:06:16;19.10;99.90
9845;DHT22;4961;50.782;6.080;2022-07-21T14:08:45;19.10;99.90
9845;DHT22;4961;50.782;6.080;2022-07-21T14:11:14;19.10;99.90
9845;DHT22;4961;50.782;6.080;2022-07-21T14:13:44;19.20;99.90
9845;DHT22;4961;50.782;6.080;2022-07-21T14:16:12;19.20;99.90
9845;DHT22;4961;50.782;6.080;2022-07-21T14:18:41;19.20;99.90
9845;DHT22;4961;50.782;6.080;2022-07-21T14:21:10;19.20;99.90
9845;DHT22;4961;50.782;6.080;2022-07-21T14:23:38;19.20;99.90
9845;DHT22;4961;50.782;6.080;2022-07-21T14:26:09;19.20;99.90
9845;DHT22;4961;50.782;6.080;2022-07-21T14:28:39;19.20;99.90
9845;DHT22;4961;50.782;6.080;2022-07-21T14:31:07;19.10;99.90
9845;DHT22;4961;50.782;6.080;2022-07-21T14:33:37;19.20;99.90
9845;DHT22;4961;50.782;6.080;2022-07-21T14:36:07;19.30;99.90
9845;DHT22;4961;50.782;6.080;2022-07-21T14:38:35;19.40;99.90
9845;DHT22;4961;50.782;6.080;2022-07-21T14:41:03;19.30;99.90
9845;DHT22;4961;50.782;6.080;2022-07-21T14:43:32;19.40;99.90
9845;DHT22;4961;50.782;6.080;2022-07-21T14:46:01;19.40;99.90
9845;DHT22;4961;50.782;6.080;2022-07-21T14:48:31;19.40;99.90
9845;DHT22;4961;50.782;6.080;2022-07-21T14:50:59;19.40;99.90
9845;DHT22;4961;50.782;6.080;2022-07-21T14:53:28;19.40;99.90
9845;DHT22;4961;50.782;6.080;2022-07-21T14:55:56;19.50;99.90
9845;DHT22;4961;50.782;6.080;2022-07-21T14:58:24;19.50;99.90
9845;DHT22;4961;50.782;6.080;2022-07-21T15:00:53;19.60;99.90
9845;DHT22;4961;50.782;6.080;2022-07-21T15:03:22;19.60;99.90
9845;DHT22;4961;50.782;6.080;2022-07-21T15:05:52;19.60;99.90
9845;DHT22;4961;50.782;6.080;2022-07-21T15:08:20;19.50;99.90
9845;DHT22;4961;50.782;6.080;2022-07-21T15:10:48;19.50;99.90
9845;DHT22;4961;50.782;6.080;2022-07-21T15:13:16;19.60;99.90
9845;DHT22;4961;50.782;6.080;2022-07-21T15:15:45;19.50;99.90
9845;DHT22;4961;50.782;6.080;2022-07-21T15:18:14;19.40;99.90
9845;DHT22;4961;50.782;6.080;2022-07-21T15:20:44;19.50;99.90
9845;DHT22;4961;50.782;6.080;2022-07-21T15:23:13;19.40;99.90
9845;DHT22;4961;50.782;6.080;2022-07-21T15:25:41;19.40;99.90
9845;DHT22;4961;50.782;6.080;2022-07-21T15:28:10;19.40;99.90
9845;DHT22;4961;50.782;6.080;2022-07-21T15:30:38;19.40;99.90
9845;DHT22;4961;50.782;6.080;2022-07-21T15:33:06;19.40;99.90
9845;DHT22;4961;50.782;6.080;2022-07-21T15:35:35;19.40;99.90
9845;DHT22;4961;50.782;6.080;2022-07-21T15:38:05;19.40;99.90
9845;DHT22;4961;50.782;6.080;2022-07-21T15:40:41;19.40;99.90
9845;DHT22;4961;50.782;6.080;2022-07-21T15:43:09;19.40;99.90
9845;DHT22;4961;50.782;6.080;2022-07-21T15:45:37;19.40;99.90
9845;DHT22;4961;50.782;6.080;2022-07-21T15:48:06;19.30;99.90
9845;DHT22;4961;50.782;6.080;2022-07-21T15:50:35;19.30;99.90
9845;DHT22;4961;50.782;6.080;2022-07-21T15:53:06;19.40;99.90
9845;DHT22;4961;50.782;6.080;2022-07-21T15:55:34;19.30;99.90
9845;DHT22;4961;50.782;6.080;2022-07-21T15:58:03;19.30;99.90
9845;DHT22;4961;50.782;6.080;2022-07-21T16:00:31;19.30;99.90
9845;DHT22;4961;50.782;6.080;2022-07-21T16:02:59;19.30;99.90
9845;DHT22;4961;50.782;6.080;2022-07-21T16:05:28;19.30;99.90
9845;DHT22;4961;50.782;6.080;2022-07-21T16:07:57;19.40;99.90
9845;DHT22;4961;50.782;6.080;2022-07-21T16:10:27;19.40;99.90
9845;DHT22;4961;50.782;6.080;2022-07-21T16:12:56;19.30;99.90
9845;DHT22;4961;50.782;6.080;2022-07-21T16:15:25;19.30;99.90
9845;DHT22;4961;50.782;6.080;2022-07-21T16:17:54;19.30;99.90
9845;DHT22;4961;50.782;6.080;2022-07-21T16:20:23;19.30;99.90
9845;DHT22;4961;50.782;6.080;2022-07-21T16:22:54;19.30;99.90
9845;DHT22;4961;50.782;6.080;2022-07-21T16:25:23;19.30;99.90
9845;DHT22;4961;50.782;6.080;2022-07-21T16:27:54;19.30;99.90
9845;DHT22;4961;50.782;6.080;2022-07-21T16:30:22;19.30;99.90